Time;durP1;ratioP1;P1;durP2;ratioP2;P2;SDS_P1;SDS_P2;PMS_P1;PMS_P2;Temp;Humidity;BMP_temperature;BMP_pressure;BME280_temperature;BME280_humidity;BME280_pressure;Samples;Min_cycle;Max_cycle;Signal;HPM_P1;HPM_P2
2022/06/02 00:02:19;;;;;;;1.83;0.90;;;16.70;1.00;;;;;;5071050;28;20485;-78
2022/06/02 00:04:55;;;;;;;0.80;0.70;;;16.70;1.00;;;;;;5070700;28;20520;-78
2022/06/02 00:07:28;;;;;;;0.80;0.80;;;16.90;1.00;;;;;;5071789;28;20463;-79
2022/06/02 00:10:04;;;;;;;1.47;0.77;;;16.80;1.00;;;;;;5071197;28;20777;-79
2022/06/02 00:12:37;;;;;;;0.90;0.70;;;16.80;1.00;;;;;;5070884;28;20463;-79
2022/06/02 00:15:17;;;;;;;1.00;0.70;;;16.80;1.00;;;;;;5070777;28;20446;-78
2022/06/02 00:17:50;;;;;;;2.17;1.03;;;16.80;1.00;;;;;;5070533;28;20441;-78
2022/06/02 00:20:21;;;;;;;1.10;1.00;;;16.80;1.00;;;;;;5071012;28;20449;-78
2022/06/02 00:22:58;;;;;;;1.70;0.90;;;16.70;1.00;;;;;;5071007;28;20476;-78
2022/06/02 00:25:32;;;;;;;0.80;0.80;;;16.70;1.00;;;;;;5071231;28;20453;-78
2022/06/02 00:28:06;;;;;;;1.07;0.90;;;16.80;1.00;;;;;;5069696;28;20445;-77
2022/06/02 00:30:40;;;;;;;0.80;0.60;;;16.70;1.00;;;;;;5068057;28;20522;-77
2022/06/02 00:33:22;;;;;;;0.80;0.80;;;16.60;1.00;;;;;;5070838;28;20484;-78
2022/06/02 00:35:56;;;;;;;1.60;0.80;;;16.50;1.00;;;;;;5070299;28;20504;-79
2022/06/02 00:38:26;;;;;;;1.23;0.90;;;16.40;1.00;;;;;;5070835;28;20956;-78
2022/06/02 00:40:57;;;;;;;1.13;0.80;;;16.50;1.00;;;;;;5070369;28;21016;-78
2022/06/02 00:43:38;;;;;;;1.00;0.90;;;16.50;1.00;;;;;;5070601;28;20963;-79
2022/06/02 00:46:15;;;;;;;1.30;0.90;;;16.50;1.00;;;;;;5070582;28;20468;-78
2022/06/02 00:48:55;;;;;;;1.10;1.00;;;16.40;1.00;;;;;;5069642;28;20979;-77
2022/06/02 00:51:30;;;;;;;0.93;0.73;;;16.40;1.00;;;;;;5071140;28;20448;-78
2022/06/02 01:00:04;;;;;;;0.93;0.70;;;16.50;1.00;;;;;;5064578;28;20449;-78
2022/06/02 01:02:45;;;;;;;1.37;1.10;;;16.50;1.00;;;;;;5074393;28;20959;-78
2022/06/02 01:05:15;;;;;;;1.50;1.07;;;16.50;1.00;;;;;;5074864;28;20457;-78
2022/06/02 01:07:52;;;;;;;1.27;1.00;;;16.30;1.00;;;;;;5065011;28;20452;-77
2022/06/02 01:10:33;;;;;;;1.87;1.20;;;16.20;1.00;;;;;;5074572;28;20444;-79
2022/06/02 01:13:15;;;;;;;1.00;0.70;;;16.30;1.00;;;;;;5074285;28;20475;-79
2022/06/02 01:15:51;;;;;;;1.37;1.03;;;16.40;1.00;;;;;;5073989;28;20479;-75
2022/06/02 01:18:26;;;;;;;0.90;0.73;;;16.40;1.00;;;;;;5074374;28;20486;-79
2022/06/02 01:21:11;;;;;;;1.17;0.90;;;16.40;1.00;;;;;;5073617;28;20453;-79
2022/06/02 01:24:08;;;;;;;1.20;1.00;;;16.30;1.00;;;;;;5074945;28;20455;-77
2022/06/02 01:27:05;;;;;;;0.80;0.70;;;16.30;1.00;;;;;;5065042;28;20472;-78
2022/06/02 01:30:18;;;;;;;1.57;0.80;;;16.40;1.00;;;;;;5073917;28;20485;-78
2022/06/02 01:32:58;;;;;;;1.97;1.20;;;16.40;1.00;;;;;;5072324;28;20492;-78
2022/06/02 01:35:35;;;;;;;1.50;0.83;;;16.20;1.00;;;;;;5061783;28;20441;-79
2022/06/02 01:38:13;;;;;;;1.43;0.93;;;16.30;1.00;;;;;;5069195;28;20511;-78
2022/06/02 01:40:52;;;;;;;1.00;0.90;;;16.30;1.00;;;;;;5074056;28;20452;-78
2022/06/02 01:43:26;;;;;;;1.50;0.80;;;16.30;1.00;;;;;;5074366;28;20455;-78
2022/06/02 01:46:23;;;;;;;0.83;0.77;;;16.30;1.00;;;;;;5067105;28;20447;-78
2022/06/02 01:48:57;;;;;;;1.00;0.80;;;;;;;;;;5071689;28;20453;-79
2022/06/02 01:51:29;;;;;;;0.90;0.80;;;;;;;;;;5072593;28;21032;-78
2022/06/02 01:54:04;;;;;;;1.20;0.87;;;;;;;;;;5073485;28;20445;-78
2022/06/02 01:56:38;;;;;;;1.20;0.90;;;;;;;;;;5066369;28;20469;-79
2022/06/02 01:59:15;;;;;;;3.53;0.80;;;;;;;;;;5072636;28;20552;-78
2022/06/02 02:01:47;;;;;;;1.40;1.00;;;;;;;;;;5070785;28;20766;-77
2022/06/02 02:04:26;;;;;;;1.13;0.90;;;;;;;;;;5060872;28;20950;-78
2022/06/02 02:06:58;;;;;;;1.90;0.90;;;;;;;;;;5071826;28;20776;-77
2022/06/02 02:09:29;;;;;;;0.93;0.80;;;;;;;;;;5065386;28;20456;-78
2022/06/02 02:11:58;;;;;;;1.07;0.97;;;;;;;;;;5063724;28;20973;-76
2022/06/02 02:14:44;;;;;;;0.80;0.70;;;;;;;;;;5061831;28;20496;-79
2022/06/02 02:17:15;;;;;;;1.07;0.97;;;;;;;;;;5066771;28;20566;-78
2022/06/02 02:19:49;;;;;;;0.87;0.67;;;;;;;;;;5071566;28;20527;-76
2022/06/02 02:22:20;;;;;;;0.90;0.90;;;;;;;;;;5073561;28;20444;-78
2022/06/02 02:24:59;;;;;;;0.83;0.80;;;;;;;;;;5072975;28;20805;-78
2022/06/02 02:27:29;;;;;;;0.90;0.77;;;;;;;;;;5073196;28;20495;-78
2022/06/02 02:30:02;;;;;;;1.77;0.73;;;;;;;;;;5072803;28;20455;-77
2022/06/02 02:32:32;;;;;;;1.00;0.80;;;;;;;;;;5073659;28;20477;-79
2022/06/02 02:35:04;;;;;;;1.00;0.77;;;;;;;;;;5072577;28;20456;-78
2022/06/02 02:37:35;;;;;;;1.63;0.97;;;;;;;;;;5072715;28;20477;-78
2022/06/02 02:40:05;;;;;;;1.20;1.10;;;;;;;;;;5072105;28;20486;-78
2022/06/02 02:42:35;;;;;;;1.00;0.90;;;;;;;;;;5073012;28;20447;-79
2022/06/02 02:45:21;;;;;;;1.43;1.00;;;;;;;;;;5072827;28;20787;-78
2022/06/02 02:47:50;;;;;;;0.67;0.67;;;;;;;;;;5068336;28;20519;-78
2022/06/02 02:50:23;;;;;;;1.10;1.00;;;;;;;;;;5072631;28;20811;-78
2022/06/02 02:52:56;;;;;;;0.80;0.80;;;;;;;;;;5070209;28;20447;-78
2022/06/02 02:55:27;;;;;;;1.20;1.10;;;;;;;;;;5072249;28;20464;-77
2022/06/02 02:57:56;;;;;;;3.30;1.07;;;;;;;;;;5071111;28;20478;-78
2022/06/02 03:00:24;;;;;;;1.23;0.90;;;;;;;;;;5072571;28;20457;-79
2022/06/02 03:03:00;;;;;;;5.07;1.17;;;;;;;;;;5059271;28;20482;-77
2022/06/02 03:05:29;;;;;;;1.00;0.90;;;;;;;;;;5072270;28;20535;-78
2022/06/02 03:08:00;;;;;;;4.00;1.00;;;;;;;;;;5071973;28;20450;-77
2022/06/02 03:10:34;;;;;;;1.00;1.00;;;;;;;;;;5072043;28;20456;-77
2022/06/02 03:13:07;;;;;;;1.27;1.13;;;;;;;;;;5072469;28;20450;-76
2022/06/02 03:15:38;;;;;;;0.90;0.80;;;;;;;;;;5070749;28;20538;-78
2022/06/02 03:18:14;;;;;;;1.50;1.07;;;;;;;;;;5071614;28;20481;-78
2022/06/02 03:20:45;;;;;;;1.03;0.90;;;;;;;;;;5059672;28;20450;-79
2022/06/02 03:23:19;;;;;;;1.60;1.03;;;;;;;;;;5072797;28;20444;-78
2022/06/02 03:25:48;;;;;;;1.40;1.07;;;;;;;;;;5072238;28;20965;-78
2022/06/02 03:28:20;;;;;;;1.47;1.20;;;;;;;;;;5072012;28;20489;-79
2022/06/02 03:30:49;;;;;;;2.47;1.07;;;;;;;;;;5072914;28;20456;-79
2022/06/02 03:33:23;;;;;;;1.37;1.10;;;;;;;;;;5073118;28;20830;-78
2022/06/02 03:35:57;;;;;;;1.37;1.23;;;;;;;;;;5073032;28;20528;-77
2022/06/02 03:38:36;;;;;;;1.00;0.90;;;;;;;;;;5076127;28;20482;-76
2022/06/02 03:41:18;;;;;;;1.17;0.70;;;;;;;;;;5086915;28;20463;-76
2022/06/02 03:43:51;;;;;;;1.63;1.13;;;;;;;;;;5086319;28;20441;-77
2022/06/02 03:46:25;;;;;;;1.00;0.90;;;;;;;;;;5086938;28;20451;-77
2022/06/02 03:49:01;;;;;;;1.57;1.00;;;;;;;;;;5085981;28;20471;-78
2022/06/02 03:51:35;;;;;;;1.53;1.10;;;;;;;;;;5086830;28;20439;-77
2022/06/02 03:54:14;;;;;;;2.23;1.13;;;;;;;;;;5087931;28;20436;-78
2022/06/02 03:57:01;;;;;;;0.87;0.80;;;;;;;;;;5084764;28;20428;-75
2022/06/02 03:59:34;;;;;;;2.83;1.07;;;;;;;;;;5075752;28;20447;-76
2022/06/02 04:02:03;;;;;;;1.37;1.00;;;;;;;;;;5072213;28;20733;-76
2022/06/02 04:04:34;;;;;;;1.00;1.00;;;;;;;;;;5072729;28;20527;-76
2022/06/02 04:07:11;;;;;;;1.37;1.10;;;;;;;;;;5074137;28;20751;-77
2022/06/02 04:09:42;;;;;;;1.00;0.90;;;;;;;;;;5074638;28;20502;-76
2022/06/02 04:15:06;;;;;;;2.20;0.90;;;;;;;;;;5070789;28;20702;-75
2022/06/02 04:17:39;;;;;;;1.10;1.00;;;;;;;;;;5070050;28;20470;-77
2022/06/02 04:23:13;;;;;;;0.83;0.83;;;;;;;;;;5071515;28;20423;-80
2022/06/02 04:25:46;;;;;;;1.37;1.07;;;;;;;;;;5062015;28;20454;-80
2022/06/02 04:28:19;;;;;;;0.80;0.80;;;;;;;;;;5074525;28;20925;-78
2022/06/02 04:30:52;;;;;;;1.97;1.20;;;;;;;;;;5071258;28;20488;-76
2022/06/02 04:33:23;;;;;;;1.27;1.17;;;;;;;;;;5069291;28;20558;-77
2022/06/02 04:35:57;;;;;;;3.60;0.87;;;;;;;;;;5072280;28;20483;-76
2022/06/02 04:38:31;;;;;;;1.10;0.90;;;;;;;;;;5072551;28;20983;-80
2022/06/02 04:41:04;;;;;;;1.03;0.93;;;;;;;;;;5069894;28;20956;-72
2022/06/02 04:43:35;;;;;;;1.57;0.90;;;;;;;;;;5071277;28;20770;-73
2022/06/02 04:46:09;;;;;;;1.33;1.00;;;;;;;;;;5070677;28;20836;-73
2022/06/02 04:48:40;;;;;;;1.93;1.30;;;;;;;;;;5071357;28;20457;-71
2022/06/02 04:51:11;;;;;;;2.17;0.93;;;;;;;;;;5070665;28;20470;-71
2022/06/02 04:53:48;;;;;;;1.80;1.30;;;;;;;;;;5071385;28;20530;-71
2022/06/02 04:56:20;;;;;;;2.20;1.10;;;;;;;;;;5070911;28;20447;-72
2022/06/02 04:58:50;;;;;;;1.90;1.40;;;;;;;;;;5070086;28;20475;-72
2022/06/02 05:01:24;;;;;;;1.27;1.17;;;;;;;;;;5070517;28;20550;-72
2022/06/02 05:03:56;;;;;;;1.10;0.90;;;;;;;;;;5070199;28;20521;-72
2022/06/02 05:06:28;;;;;;;1.27;1.17;;;;;;;;;;5070862;28;20514;-72
2022/06/02 05:09:03;;;;;;;2.30;1.30;;;;;;;;;;5070287;28;20459;-72
2022/06/02 05:11:38;;;;;;;0.90;0.70;;;;;;;;;;5070440;28;20538;-72
2022/06/02 05:14:10;;;;;;;1.30;1.20;;;;;;;;;;5069790;28;20487;-72
2022/06/02 05:16:43;;;;;;;2.00;1.27;;;;;;;;;;5071050;28;20447;-71
2022/06/02 05:19:38;;;;;;;1.10;1.00;;;;;;;;;;5070594;28;20484;-72
2022/06/02 05:22:22;;;;;;;2.93;1.40;;;;;;;;;;5034000;28;20838;-71
2022/06/02 05:25:01;;;;;;;1.60;1.30;;;;;;;;;;5039180;28;20487;-71
2022/06/02 05:27:46;;;;;;;1.20;1.00;;;;;;;;;;5070504;28;20469;-72
2022/06/02 05:30:33;;;;;;;1.33;1.23;;;;;;;;;;5069569;28;20450;-71
2022/06/02 05:33:15;;;;;;;2.00;1.23;;;;;;;;;;5069806;28;20481;-72
2022/06/02 05:35:57;;;;;;;1.67;1.20;;;;;;;;;;5057561;28;20454;-73
2022/06/02 05:38:41;;;;;;;4.10;1.53;;;;;;;;;;5070448;28;20466;-72
2022/06/02 05:41:13;;;;;;;1.40;1.30;;;;;;;;;;5069894;28;20520;-72
2022/06/02 05:43:43;;;;;;;2.60;1.23;;;;;;;;;;5072246;28;20540;-72
2022/06/02 05:46:23;;;;;;;2.00;1.50;;;;;;;;;;5073778;28;20449;-72
2022/06/02 05:48:58;;;;;;;2.30;1.40;;;;;;;;;;5073364;28;20459;-72
2022/06/02 05:51:35;;;;;;;1.67;1.40;;;16.20;1.00;;;;;;5073441;28;20532;-72
2022/06/02 05:54:18;;;;;;;1.47;1.20;;;17.10;1.00;;;;;;5073473;28;20903;-72
2022/06/02 05:56:55;;;;;;;1.33;1.10;;;17.00;1.00;;;;;;5073003;28;21012;-72
2022/06/02 05:59:48;;;;;;;1.63;1.53;;;16.80;1.00;;;;;;5073134;28;20525;-72
2022/06/02 06:02:40;;;;;;;3.37;1.47;;;16.70;1.00;;;;;;5073594;28;20481;-72
2022/06/02 06:05:16;;;;;;;2.23;1.27;;;16.60;1.00;;;;;;5067454;28;20446;-72
2022/06/02 06:08:01;;;;;;;1.63;1.30;;;16.80;1.00;;;;;;5060709;28;20528;-72
2022/06/02 06:10:35;;;;;;;2.30;1.40;;;16.80;1.00;;;;;;5074108;28;20553;-72
2022/06/02 06:13:13;;;;;;;1.90;1.57;;;16.70;1.00;;;;;;5072843;28;20945;-72
2022/06/02 06:15:48;;;;;;;1.53;1.17;;;16.90;1.00;;;;;;5073590;28;20480;-71
2022/06/02 06:18:36;;;;;;;2.50;1.60;;;16.90;1.00;;;;;;5073411;28;20479;-72
2022/06/02 06:21:18;;;;;;;1.53;1.30;;;17.00;1.00;;;;;;5072481;28;20445;-72
2022/06/02 06:24:23;;;;;;;1.37;1.27;;;17.00;1.00;;;;;;5072905;28;20449;-74
2022/06/02 06:26:57;;;;;;;1.53;1.17;;;16.90;1.00;;;;;;5072672;28;20804;-73
2022/06/02 06:29:37;;;;;;;1.30;1.20;;;17.00;1.00;;;;;;5072499;28;20458;-73
2022/06/02 06:32:16;;;;;;;1.27;1.17;;;16.90;1.00;;;;;;5072648;28;20960;-73
2022/06/02 06:34:57;;;;;;;2.97;1.40;;;16.80;1.00;;;;;;5072177;28;20452;-74
2022/06/02 06:37:49;;;;;;;2.53;1.40;;;16.90;1.00;;;;;;5073120;28;20456;-72
2022/06/02 06:40:38;;;;;;;1.63;1.37;;;16.80;1.00;;;;;;5072233;28;20445;-72
2022/06/02 06:43:16;;;;;;;1.63;1.33;;;16.80;1.00;;;;;;5072220;28;20449;-72
2022/06/02 06:45:49;;;;;;;1.90;1.50;;;17.00;1.00;;;;;;5072918;28;20445;-72
2022/06/02 06:48:23;;;;;;;4.70;1.37;;;16.90;1.00;;;;;;5072830;28;20452;-72
2022/06/02 06:51:01;;;;;;;2.60;1.37;;;16.90;1.00;;;;;;5071568;28;20948;-72
2022/06/02 06:53:46;;;;;;;2.73;1.37;;;16.90;1.00;;;;;;5072753;28;20532;-72
2022/06/02 06:56:21;;;;;;;2.97;1.43;;;17.00;1.00;;;;;;5071484;28;20460;-72
2022/06/02 06:59:00;;;;;;;1.90;1.30;;;17.00;1.00;;;;;;5071868;28;20484;-72
2022/06/02 07:01:36;;;;;;;1.90;1.30;;;17.10;1.00;;;;;;5072498;28;20498;-72
2022/06/02 07:04:16;;;;;;;1.63;1.23;;;16.90;1.00;;;;;;5071687;28;20437;-72
2022/06/02 07:06:51;;;;;;;4.50;1.57;;;16.90;1.00;;;;;;5071703;28;20441;-72
2022/06/02 07:09:28;;;;;;;1.73;1.53;;;17.10;1.00;;;;;;5071608;28;20936;-73
2022/06/02 07:14:50;;;;;;;1.33;1.23;;;17.30;1.00;;;;;;5071593;28;20495;-73
2022/06/02 07:17:23;;;;;;;2.33;1.33;;;17.30;1.00;;;;;;5072222;28;20441;-72
2022/06/02 07:20:00;;;;;;;1.70;1.30;;;17.40;1.00;;;;;;5071463;28;20450;-72
2022/06/02 07:22:38;;;;;;;3.00;1.40;;;17.40;1.00;;;;;;5072290;28;20445;-72
2022/06/02 07:25:15;;;;;;;2.13;1.30;;;17.50;1.00;;;;;;5071285;28;20438;-72
2022/06/02 07:27:50;;;;;;;3.07;1.30;;;17.60;1.00;;;;;;5071225;28;20445;-74
2022/06/02 07:30:33;;;;;;;1.40;1.30;;;17.60;1.00;;;;;;5071275;28;20464;-72
2022/06/02 07:33:20;;;;;;;3.13;1.40;;;17.60;1.00;;;;;;5070867;28;20477;-72
2022/06/02 07:36:16;;;;;;;5.63;1.60;;;17.60;1.00;;;;;;5071471;28;20460;-72
2022/06/02 07:39:23;;;;;;;1.50;1.40;;;17.90;1.00;;;;;;5070970;28;20485;-73
2022/06/02 07:42:10;;;;;;;2.37;1.20;;;17.80;1.00;;;;;;5057627;28;20491;-73
2022/06/02 07:45:04;;;;;;;1.20;1.10;;;17.70;1.00;;;;;;5071812;28;20441;-73
2022/06/02 07:48:05;;;;;;;3.37;1.30;;;17.80;1.00;;;;;;5071221;28;20879;-73
2022/06/02 07:50:34;;;;;;;0.93;0.83;;;17.90;1.00;;;;;;5068828;28;20460;-73
2022/06/02 07:53:12;;;;;;;2.33;1.33;;;17.80;1.00;;;;;;5070963;28;20785;-73
2022/06/02 07:55:51;;;;;;;1.97;1.17;;;17.70;1.00;;;;;;5071785;28;20469;-72
2022/06/02 07:58:32;;;;;;;1.60;1.37;;;17.80;1.00;;;;;;5059495;28;20564;-73
2022/06/02 08:01:05;;;;;;;1.23;1.03;;;18.00;1.00;;;;;;5070461;28;20449;-73
2022/06/02 08:03:54;;;;;;;1.77;1.30;;;18.10;1.00;;;;;;5071264;28;20473;-73
2022/06/02 08:06:35;;;;;;;1.20;1.10;;;18.10;1.00;;;;;;5070691;28;20453;-73
2022/06/02 08:09:22;;;;;;;1.83;1.40;;;;;;;;;;5070269;28;20544;-72
2022/06/02 08:11:55;;;;;;;1.03;0.90;;;;;;;;;;5070360;28;20937;-72
2022/06/02 08:14:29;;;;;;;1.57;0.97;;;;;;;;;;5071217;28;20457;-72
2022/06/02 08:17:01;;;;;;;2.43;1.23;;;;;;;;;;5070499;28;20450;-73
2022/06/02 08:19:34;;;;;;;1.17;1.07;;;;;;;;;;5070921;28;20473;-73
2022/06/02 08:22:03;;;;;;;2.00;1.20;;;;;;;;;;5070790;28;20784;-72
2022/06/02 08:24:41;;;;;;;1.50;1.20;;;;;;;;;;5071311;28;20446;-72
2022/06/02 08:27:17;;;;;;;1.70;1.40;;;;;;;;;;5071284;28;20870;-72
2022/06/02 08:29:58;;;;;;;1.23;1.13;;;;;;;;;;5069925;28;20806;-72
2022/06/02 08:32:43;;;;;;;1.47;1.13;;;;;;;;;;5070630;28;20843;-72
2022/06/02 08:35:20;;;;;;;1.30;1.20;;;18.10;1.00;;;;;;5071229;28;20442;-73
2022/06/02 08:38:00;;;;;;;1.17;1.00;;;18.60;1.00;;;;;;5070266;28;20437;-73
2022/06/02 08:41:00;;;;;;;1.20;0.93;;;18.60;1.00;;;;;;5070622;28;20487;-73
2022/06/02 08:43:49;;;;;;;1.20;1.10;;;18.80;1.00;;;;;;5037014;28;20485;-73
2022/06/02 08:46:41;;;;;;;3.43;1.47;;;19.10;1.00;;;;;;5070775;28;20452;-73
2022/06/02 08:49:40;;;;;;;1.17;1.07;;;19.10;1.00;;;;;;5070646;28;20438;-73
2022/06/02 08:52:47;;;;;;;1.87;1.40;;;19.20;1.00;;;;;;5071142;28;20441;-73
2022/06/02 08:55:48;;;;;;;1.30;1.13;;;19.10;1.00;;;;;;5044908;28;20457;-73
2022/06/02 08:58:33;;;;;;;1.40;1.30;;;;;;;;;;5070588;28;20485;-73
2022/06/02 09:01:12;;;;;;;1.00;0.90;;;;;;;;;;5069963;28;20445;-72
2022/06/02 09:03:55;;;;;;;1.40;1.20;;;;;;;;;;5071158;28;20441;-72
2022/06/02 09:06:40;;;;;;;1.77;1.47;;;;;;;;;;5048358;28;20501;-72
2022/06/02 09:09:28;;;;;;;1.40;1.20;;;;;;;;;;5070251;28;20441;-72
2022/06/02 09:12:04;;;;;;;2.57;1.20;;;;;;;;;;5069794;28;20445;-72
2022/06/02 09:14:54;;;;;;;1.60;1.30;;;;;;;;;;5070769;28;20594;-72
2022/06/02 09:17:27;;;;;;;1.30;1.20;;;;;;;;;;5070724;28;20460;-72
2022/06/02 09:20:10;;;;;;;2.20;0.90;;;;;;;;;;5073438;28;20477;-73
2022/06/02 09:22:58;;;;;;;4.43;1.37;;;;;;;;;;5075099;28;20458;-72
2022/06/02 09:25:43;;;;;;;1.23;1.13;;;;;;;;;;5074304;28;20473;-72
2022/06/02 09:28:25;;;;;;;2.20;1.40;;;;;;;;;;5074304;28;20433;-73
2022/06/02 09:30:57;;;;;;;1.23;1.13;;;;;;;;;;5073609;28;20512;-72
2022/06/02 09:33:43;;;;;;;1.30;1.20;;;;;;;;;;5074244;28;20450;-72
2022/06/02 09:36:29;;;;;;;1.20;1.07;;;;;;;;;;5074204;28;20476;-72
2022/06/02 09:39:05;;;;;;;1.50;1.40;;;;;;;;;;5061847;28;20485;-72
2022/06/02 09:41:42;;;;;;;1.43;1.30;;;;;;;;;;5074149;28;20547;-72
2022/06/02 09:44:16;;;;;;;1.07;1.00;;;;;;;;;;5074066;28;20449;-71
2022/06/02 09:46:58;;;;;;;1.90;1.50;;;;;;;;;;5073502;28;20454;-72
2022/06/02 09:49:45;;;;;;;1.40;1.20;;;;;;;;;;5060884;28;20453;-72
2022/06/02 09:52:20;;;;;;;1.73;1.33;;;;;;;;;;5073634;28;20481;-72
2022/06/02 09:55:02;;;;;;;3.37;1.90;;;;;;;;;;5073192;28;20534;-73
2022/06/02 09:57:57;;;;;;;1.57;1.43;;;;;;;;;;5071399;28;20828;-72
2022/06/02 10:00:38;;;;;;;1.70;1.40;;;;;;;;;;5073322;28;20501;-72
2022/06/02 10:03:14;;;;;;;2.57;1.37;;;;;;;;;;5073145;28;20448;-73
2022/06/02 10:05:47;;;;;;;1.20;1.10;;;;;;;;;;5073686;28;20445;-72
2022/06/02 10:08:22;;;;;;;2.93;1.50;;;;;;;;;;5073699;28;20792;-72
2022/06/02 10:10:59;;;;;;;1.50;1.10;;;;;;;;;;5072616;28;20553;-72
2022/06/02 10:13:41;;;;;;;1.57;1.43;;;;;;;;;;5073431;28;20451;-72
2022/06/02 10:16:25;;;;;;;2.60;1.13;;;;;;;;;;5060895;28;20458;-72
2022/06/02 10:18:57;;;;;;;1.50;1.40;;;;;;;;;;5072350;28;20528;-72
2022/06/02 10:21:31;;;;;;;1.20;1.10;;;;;;;;;;5073406;28;20445;-74
2022/06/02 10:24:16;;;;;;;1.57;1.47;;;;;;;;;;5072465;28;20485;-72
2022/06/02 10:26:51;;;;;;;1.63;1.00;;;;;;;;;;5072443;28;20444;-74
2022/06/02 10:29:27;;;;;;;3.00;1.10;;;;;;;;;;5072121;28;20883;-72
2022/06/02 10:32:08;;;;;;;1.60;1.43;;;;;;;;;;5072204;28;20501;-72
2022/06/02 10:34:45;;;;;;;1.27;1.07;;;;;;;;;;5073040;28;20464;-73
2022/06/02 10:37:42;;;;;;;1.20;1.10;;;;;;;;;;5073096;28;20452;-72
2022/06/02 10:40:17;;;;;;;2.33;0.90;;;;;;;;;;5010357;28;20995;-72
2022/06/02 10:42:58;;;;;;;1.63;1.13;;;;;;;;;;5061267;28;20457;-73
2022/06/02 10:45:36;;;;;;;1.30;1.20;;;;;;;;;;5072864;28;20524;-72
2022/06/02 10:48:33;;;;;;;1.37;1.27;;;;;;;;;;5072323;28;20445;-72
2022/06/02 10:51:13;;;;;;;2.30;1.13;;;;;;;;;;5071637;28;20446;-73
2022/06/02 10:53:54;;;;;;;1.57;1.10;;;;;;;;;;5072242;28;20536;-73
2022/06/02 10:56:36;;;;;;;2.00;1.17;;;;;;;;;;5072629;28;20491;-73
2022/06/02 10:59:24;;;;;;;1.50;1.40;;;;;;;;;;5071223;28;20945;-73
2022/06/02 11:02:04;;;;;;;1.37;1.27;;;;;;;;;;5071728;28;20525;-73
2022/06/02 11:04:48;;;;;;;1.53;1.27;;;;;;;;;;5072535;28;20942;-73
2022/06/02 11:07:41;;;;;;;1.37;1.10;;;;;;;;;;5072488;28;20560;-73
2022/06/02 11:10:23;;;;;;;2.00;1.37;;;;;;;;;;5071892;28;20541;-73
2022/06/02 11:13:04;;;;;;;1.10;1.00;;;;;;;;;;5069600;28;20796;-73
2022/06/02 11:15:52;;;;;;;2.13;1.10;;;;;;;;;;5071772;28;20446;-73
2022/06/02 11:18:33;;;;;;;2.03;0.90;;;;;;;;;;5072506;28;20848;-73
2022/06/02 11:21:34;;;;;;;1.20;1.00;;;;;;;;;;5070924;28;20466;-73
2022/06/02 11:24:31;;;;;;;1.30;1.20;;;;;;;;;;5071717;28;20438;-73
2022/06/02 11:27:18;;;;;;;1.30;1.03;;;;;;;;;;5009305;28;20875;-73
2022/06/02 11:30:03;;;;;;;1.23;1.13;;;;;;;;;;5064673;28;20465;-73
2022/06/02 11:32:38;;;;;;;1.50;1.40;;;;;;;;;;5071634;28;20481;-72
2022/06/02 11:35:20;;;;;;;1.40;1.30;;;;;;;;;;5071312;28;20451;-73
2022/06/02 11:37:59;;;;;;;1.70;1.60;;;;;;;;;;5071045;28;20873;-73
2022/06/02 11:40:41;;;;;;;1.40;1.30;;;;;;;;;;5070639;28;20501;-72
2022/06/02 11:43:13;;;;;;;1.87;1.00;;;;;;;;;;5069795;28;21012;-73
2022/06/02 11:45:58;;;;;;;1.53;1.43;;;;;;;;;;5071556;28;20453;-73
2022/06/02 11:48:36;;;;;;;1.30;1.20;;;;;;;;;;5071633;28;20453;-72
2022/06/02 11:51:11;;;;;;;1.27;1.17;;;;;;;;;;5070708;28;20465;-72
2022/06/02 11:53:48;;;;;;;1.10;0.93;;;;;;;;;;5071796;28;20447;-74
2022/06/02 11:56:21;;;;;;;1.07;0.97;;;;;;;;;;5071412;28;20511;-73
2022/06/02 11:59:09;;;;;;;1.97;1.20;;;;;;;;;;5070423;28;20449;-73
2022/06/02 12:01:57;;;;;;;1.20;1.10;;;;;;;;;;5071237;28;20438;-73
2022/06/02 12:04:29;;;;;;;1.30;1.20;;;;;;;;;;5066504;28;20557;-73
2022/06/02 12:07:20;;;;;;;2.10;1.40;;;;;;;;;;5070935;28;20445;-72
2022/06/02 12:10:04;;;;;;;1.30;1.20;;;;;;;;;;5055143;28;21005;-72
2022/06/02 12:12:42;;;;;;;1.20;1.10;;;;;;;;;;5071397;28;20886;-72
2022/06/02 12:15:25;;;;;;;2.50;1.30;;;;;;;;;;5071403;28;20459;-72
2022/06/02 12:18:03;;;;;;;1.40;1.30;;;;;;;;;;5070876;28;20531;-72
2022/06/02 12:20:47;;;;;;;1.37;1.27;;;;;;;;;;5070550;28;20476;-72
2022/06/02 12:23:23;;;;;;;1.10;1.00;;;;;;;;;;5070715;28;20959;-72
2022/06/02 12:26:01;;;;;;;1.20;1.10;;;;;;;;;;5070717;28;20450;-72
2022/06/02 12:28:39;;;;;;;1.63;1.20;;;;;;;;;;5071089;28;20449;-72
2022/06/02 12:31:28;;;;;;;1.00;0.90;;;;;;;;;;5070080;28;20480;-72
2022/06/02 12:34:03;;;;;;;1.53;1.10;;;;;;;;;;5070204;28;20929;-72
2022/06/02 12:36:37;;;;;;;1.10;1.00;;;;;;;;;;5070857;28;20438;-72
2022/06/02 12:39:10;;;;;;;1.43;1.10;;;;;;;;;;5069823;28;20921;-73
2022/06/02 12:41:47;;;;;;;1.30;1.20;;;;;;;;;;5071064;28;20478;-72
2022/06/02 12:44:30;;;;;;;3.27;1.43;;;;;;;;;;5070888;28;20460;-72
2022/06/02 12:47:12;;;;;;;1.30;1.13;;;;;;;;;;5070157;28;20861;-73
2022/06/02 12:49:57;;;;;;;1.40;1.30;;;;;;;;;;5068828;28;20944;-73
2022/06/02 12:52:37;;;;;;;1.30;1.20;;;;;;;;;;5072561;28;20473;-73
2022/06/02 12:55:17;;;;;;;1.20;1.10;;;;;;;;;;5074466;28;20445;-73
2022/06/02 12:57:54;;;;;;;1.50;1.10;;;;;;;;;;5074190;28;20472;-73
2022/06/02 13:00:27;;;;;;;1.50;1.37;;;;;;;;;;5074525;28;20496;-71
2022/06/02 13:03:15;;;;;;;2.10;1.20;;;;;;;;;;5074333;28;20445;-72
2022/06/02 13:06:01;;;;;;;2.20;1.03;;;;;;;;;;5071012;28;20489;-73
2022/06/02 13:08:46;;;;;;;1.30;1.20;;;;;;;;;;5075434;28;20500;-73
2022/06/02 13:11:41;;;;;;;1.53;1.43;;;;;;;;;;5082561;28;20479;-72
2022/06/02 13:14:41;;;;;;;1.33;1.23;;;;;;;;;;5083794;28;20521;-72
2022/06/02 13:17:31;;;;;;;1.40;1.30;;;;;;;;;;5022119;28;20448;-73
2022/06/02 13:20:17;;;;;;;1.00;1.00;;;;;;;;;;5016043;28;20483;-72
2022/06/02 13:23:11;;;;;;;1.70;1.60;;;;;;;;;;5059263;28;20474;-73
2022/06/02 13:25:53;;;;;;;1.20;1.10;;;;;;;;;;5076438;28;20529;-73
2022/06/02 13:28:32;;;;;;;1.30;1.20;;;;;;;;;;5075815;28;20532;-72
2022/06/02 13:31:12;;;;;;;1.47;1.37;;;;;;;;;;5073730;28;20980;-72
2022/06/02 13:34:14;;;;;;;1.10;1.00;;;;;;;;;;5074956;28;20528;-73
2022/06/02 13:36:45;;;;;;;1.13;1.03;;;;;;;;;;5074553;28;20537;-72
2022/06/02 13:39:23;;;;;;;1.03;0.93;;;;;;;;;;5074329;28;20445;-73
2022/06/02 13:42:05;;;;;;;1.17;1.07;;;;;;;;;;5074137;28;20517;-72
2022/06/02 13:44:44;;;;;;;1.17;1.10;;;;;;;;;;5074483;28;20473;-72
2022/06/02 13:47:43;;;;;;;1.20;1.10;;;;;;;;;;5074391;28;20476;-72
2022/06/02 13:50:23;;;;;;;1.60;1.50;;;;;;;;;;5061455;28;20488;-73
2022/06/02 13:53:05;;;;;;;1.40;1.30;;;;;;;;;;5073335;28;20449;-73
2022/06/02 13:58:46;;;;;;;1.47;1.30;;;;;;;;;;5049913;28;20434;-73
2022/06/02 14:01:27;;;;;;;2.53;1.80;;;;;;;;;;5073205;28;20526;-73
2022/06/02 14:04:04;;;;;;;1.50;1.10;;;;;;;;;;5072248;28;20460;-73
2022/06/02 14:06:41;;;;;;;1.30;1.20;;;19.30;1.00;;;;;;5073554;28;20549;-72
2022/06/02 14:09:25;;;;;;;1.30;1.20;;;26.40;1.00;;;;;;5073131;28;20806;-72
2022/06/02 14:12:00;;;;;;;1.10;1.00;;;26.60;1.00;;;;;;5073011;28;20445;-72
2022/06/02 14:14:43;;;;;;;1.10;1.00;;;;;;;;;;5073498;28;20495;-72
2022/06/02 14:17:16;;;;;;;2.87;1.93;;;;;;;;;;5073680;28;20459;-72
2022/06/02 14:19:52;;;;;;;1.40;1.30;;;;;;;;;;5072586;28;20449;-72
2022/06/02 14:22:25;;;;;;;1.45;1.35;;;;;;;;;;5073419;28;20221;-72
2022/06/02 14:24:59;;;;;;;1.65;1.48;;;25.70;1.00;;;;;;5072573;28;20204;-73
2022/06/02 14:27:36;;;;;;;1.40;1.30;;;28.10;1.00;;;;;;5073393;28;20247;-72
2022/06/02 14:30:12;;;;;;;2.08;1.20;;;28.00;1.00;;;;;;5071886;28;20207;-72
2022/06/02 14:32:46;;;;;;;1.35;1.17;;;;;;;;;;5072800;28;20231;-72
2022/06/02 14:35:31;;;;;;;1.38;1.27;;;;;;;;;;5072759;28;20584;-73
2022/06/02 14:38:04;;;;;;;1.73;1.40;;;;;;;;;;5072287;28;20205;-73
2022/06/02 14:40:32;;;;;;;1.50;1.30;;;;;;;;;;5072760;28;20218;-73
2022/06/02 14:43:21;;;;;;;2.03;1.30;;;;;;;;;;5072545;28;20788;-73
2022/06/02 14:45:56;;;;;;;1.43;1.33;;;;;;;;;;5067040;28;20465;-73
2022/06/02 14:48:28;;;;;;;1.90;1.20;;;;;;;;;;5072610;28;20498;-73
2022/06/02 14:50:56;;;;;;;1.40;1.30;;;;;;;;;;5072261;28;20806;-73
2022/06/02 14:53:31;;;;;;;1.40;1.30;;;;;;;;;;5072538;28;20468;-73
2022/06/02 14:56:07;;;;;;;1.20;1.10;;;;;;;;;;5072255;28;20434;-72
2022/06/02 14:58:39;;;;;;;1.37;1.27;;;;;;;;;;5072185;28;20484;-73
2022/06/02 15:01:10;;;;;;;1.20;1.10;;;;;;;;;;5072141;28;20523;-72
2022/06/02 15:04:01;;;;;;;1.13;1.03;;;;;;;;;;5072734;28;20532;-72
2022/06/02 15:06:32;;;;;;;2.07;1.30;;;;;;;;;;5051781;28;20538;-73
2022/06/02 15:09:17;;;;;;;2.37;1.40;;;;;;;;;;5071498;28;20460;-71
2022/06/02 15:11:55;;;;;;;2.90;1.30;;;;;;;;;;5071483;28;20473;-72
2022/06/02 15:14:28;;;;;;;1.20;1.10;;;;;;;;;;5059802;28;20959;-71
2022/06/02 15:17:10;;;;;;;2.20;1.30;;;;;;;;;;5071651;28;20441;-72
2022/06/02 15:19:50;;;;;;;2.80;1.67;;;;;;;;;;5071646;28;20429;-72
2022/06/02 15:22:41;;;;;;;2.33;1.80;;;;;;;;;;5072232;28;20441;-72
2022/06/02 15:25:17;;;;;;;1.30;1.20;;;;;;;;;;5057093;28;20816;-73
2022/06/02 15:27:50;;;;;;;1.67;1.50;;;;;;;;;;5071682;28;20444;-73
2022/06/02 15:30:47;;;;;;;1.60;1.50;;;;;;;;;;5071657;28;20457;-73
2022/06/02 15:33:36;;;;;;;2.13;1.40;;;;;;;;;;5009630;28;20562;-72
2022/06/02 15:36:13;;;;;;;1.77;1.20;;;;;;;;;;5066029;28;20446;-72